Accueil
METAR-TAF:

METAR-TAF

Aéroports :

Aéroport Nikola-Tesla de Belgrade

Belgrade, Serbie

latitude: 44-49N, longitude: 020-17E, altitude: 96 m

Observation

Le bulletin a été fait il y a 39 minutes, à 08:00 UTC
Vent 16 kt de sud-est
Température 10°C
Humidité 71%
Pression 1012 hPa
Visibilité 10 km ou plus
pas de nuages en-dessous de 1500 mètres et pas de cumulonimbus.

METAR: LYBE 050800Z 13016KT CAVOK 10/05 Q1012 NOSIG

Heure: 09:39 (08:39 UTC)

Prévision

Le bulletin a été fait il y a 3 heures et 39 minutes, à 05:00 UTC
Prévision valable du 05 à 06 UTC au 06 à 06 UTC
Vent 20 kt de sud-est
Visibilité 10 km ou plus
pas de nuages en-dessous de 1500 mètres et pas de cumulonimbus.
Temporairement
du 05 à 09 UTC au 05 à 21 UTC
Vent 20 kt de est/sud-est avec des rafales jusqu'à 30 kt

TAF: LYBE 050500Z 0506/0606 13020KT CAVOK TX12/0513Z TN08/0605Z TEMPO 0509/0521 12020G30KT

Observations et prévisions météorologiques de plus de 4000 aéroports (messages METAR et TAF).

Les stations disponibles sont représentées par des disques jaunes et rouges sur la carte.

Passer la souris dessus pour voir le nom de la station.

Cliquer dessus pour voir les observations et prévisions météorologiques.

Pour changer de carte: cliquez sur les boutons verts avec une croix noire pour zoomer, sur le bouton vert avec un tiret pour effectuer un zoom arrière, ou sur les flèches vertes pour les cartes adjacentes.


METAR-TAF: